Time;durP1;ratioP1;P1;durP2;ratioP2;P2;SDS_P1;SDS_P2;PMS_P1;PMS_P2;Temp;Humidity;BMP_temperature;BMP_pressure;BME280_temperature;BME280_humidity;BME280_pressure;Samples;Min_cycle;Max_cycle;Signal;HPM_P1;HPM_P2
2023/06/12 00:00:56;;;;;;;4.23;3.83;;;26.50;45.20;;;;;;4903068;29;20219;-88
2023/06/12 00:03:25;;;;;;;5.43;4.10;;;26.50;45.30;;;;;;4902962;29;20177;-87
2023/06/12 00:05:58;;;;;;;4.00;3.60;;;26.50;45.30;;;;;;4903147;29;20186;-87
2023/06/12 00:08:27;;;;;;;5.30;3.93;;;26.50;45.40;;;;;;4904122;29;20181;-87
2023/06/12 00:10:53;;;;;;;4.37;3.73;;;26.50;45.50;;;;;;4903618;29;20415;-87
2023/06/12 00:13:18;;;;;;;4.30;3.57;;;26.40;45.50;;;;;;4903430;29;20550;-87
2023/06/12 00:15:44;;;;;;;4.70;4.00;;;26.40;45.60;;;;;;4918210;29;20287;-87
2023/06/12 00:18:11;;;;;;;3.93;3.63;;;26.40;45.60;;;;;;4918690;29;20184;-87
2023/06/12 00:20:36;;;;;;;3.80;3.50;;;26.30;45.60;;;;;;4919574;29;20205;-87
2023/06/12 00:23:02;;;;;;;4.30;3.90;;;26.30;45.70;;;;;;4919467;29;20180;-88
2023/06/12 00:25:28;;;;;;;6.93;3.90;;;26.30;45.70;;;;;;4902969;29;20177;-87
2023/06/12 00:27:54;;;;;;;4.53;3.90;;;26.30;45.80;;;;;;4902539;29;20579;-87
2023/06/12 00:30:20;;;;;;;4.10;3.70;;;26.20;45.70;;;;;;4901225;29;20184;-87
2023/06/12 00:32:47;;;;;;;4.30;3.90;;;26.20;45.80;;;;;;4901825;29;20442;-88
2023/06/12 00:35:13;;;;;;;5.23;4.17;;;26.20;45.70;;;;;;4917852;29;20644;-87
2023/06/12 00:37:41;;;;;;;3.90;3.60;;;26.10;45.70;;;;;;4902459;29;20220;-87
2023/06/12 00:40:09;;;;;;;4.30;3.90;;;26.10;45.70;;;;;;4917753;29;20335;-88
2023/06/12 00:42:49;;;;;;;5.00;3.80;;;26.10;45.80;;;;;;4901049;29;20263;-87
2023/06/12 00:45:16;;;;;;;4.40;4.00;;;26.10;45.80;;;;;;4900887;29;20169;-87
2023/06/12 00:47:45;;;;;;;4.10;3.70;;;26.10;45.80;;;;;;4901254;29;20184;-87
2023/06/12 00:50:12;;;;;;;4.50;3.87;;;26.10;45.80;;;;;;4900721;29;20192;-87
2023/06/12 00:52:43;;;;;;;4.10;3.70;;;26.10;45.80;;;;;;4900900;29;20229;-87
2023/06/12 00:55:09;;;;;;;4.40;4.00;;;26.00;45.80;;;;;;4901330;29;20546;-87
2023/06/12 00:57:37;;;;;;;4.27;3.87;;;26.00;45.80;;;;;;4918330;29;20181;-86
2023/06/12 01:00:07;;;;;;;5.63;4.60;;;26.00;45.80;;;;;;4917636;29;20209;-87
2023/06/12 01:02:42;;;;;;;4.27;3.87;;;26.00;45.80;;;;;;4901506;29;20185;-87
2023/06/12 01:05:22;;;;;;;4.27;3.87;;;25.90;45.80;;;;;;4901423;29;20187;-87
2023/06/12 01:08:07;;;;;;;5.03;4.00;;;25.90;45.80;;;;;;4918084;29;20193;-87
2023/06/12 01:10:54;;;;;;;4.03;3.63;;;25.90;45.90;;;;;;4901524;29;20173;-87
2023/06/12 01:13:20;;;;;;;4.50;4.00;;;25.80;45.80;;;;;;4900567;29;20181;-87
2023/06/12 01:15:46;;;;;;;4.50;4.10;;;25.80;45.80;;;;;;4900137;29;20329;-87
2023/06/12 01:18:12;;;;;;;4.57;3.80;;;25.80;45.80;;;;;;4916645;29;20599;-87
2023/06/12 01:20:40;;;;;;;4.50;4.07;;;25.80;45.80;;;;;;4917624;29;20595;-87
2023/06/12 01:23:25;;;;;;;5.13;4.00;;;25.70;46.20;;;;;;4901225;29;20243;-87
2023/06/12 01:26:26;;;;;;;3.90;3.60;;;25.70;45.80;;;;;;4901527;29;20209;-87
2023/06/12 01:29:33;;;;;;;4.40;3.97;;;25.70;45.90;;;;;;4915542;29;20268;-87
2023/06/12 01:32:15;;;;;;;4.80;4.10;;;25.70;45.90;;;;;;4872527;29;20176;-87
2023/06/12 01:35:05;;;;;;;4.40;4.00;;;25.60;45.90;;;;;;4908368;29;20188;-87
2023/06/12 01:37:44;;;;;;;4.13;3.73;;;25.60;45.90;;;;;;4901279;29;20188;-87
2023/06/12 01:40:12;;;;;;;4.43;3.93;;;25.60;45.90;;;;;;4901609;29;20212;-87
2023/06/12 01:42:39;;;;;;;4.07;3.77;;;25.60;45.90;;;;;;4901782;29;20496;-87
2023/06/12 01:45:05;;;;;;;4.00;3.67;;;25.60;46.00;;;;;;4903849;29;20181;-87
2023/06/12 01:47:31;;;;;;;4.40;4.00;;;25.50;45.90;;;;;;4918977;29;20208;-87
2023/06/12 01:49:57;;;;;;;5.00;4.23;;;25.50;46.00;;;;;;4902773;29;20203;-87
2023/06/12 01:52:24;;;;;;;4.10;3.70;;;25.50;46.00;;;;;;4902631;29;20176;-87
2023/06/12 01:54:49;;;;;;;5.00;4.30;;;25.40;45.90;;;;;;4918705;29;20200;-87
2023/06/12 01:57:19;;;;;;;4.60;3.90;;;25.40;45.90;;;;;;4917549;29;20655;-87
2023/06/12 01:59:48;;;;;;;5.13;4.17;;;25.40;46.00;;;;;;4918058;29;20234;-87
2023/06/12 02:02:15;;;;;;;4.23;3.83;;;25.40;46.00;;;;;;4901604;29;20268;-87
2023/06/12 02:04:41;;;;;;;4.53;3.77;;;25.40;46.00;;;;;;4918810;29;20180;-88
2023/06/12 02:07:07;;;;;;;5.20;3.70;;;25.30;46.00;;;;;;4917735;29;20184;-87
2023/06/12 02:09:33;;;;;;;4.60;4.13;;;25.40;46.10;;;;;;4901106;29;20184;-87
2023/06/12 02:12:00;;;;;;;4.43;4.03;;;25.30;46.00;;;;;;4918084;29;20429;-87
2023/06/12 02:14:27;;;;;;;4.37;3.80;;;25.30;46.00;;;;;;4918094;29;20185;-87
2023/06/12 02:16:55;;;;;;;4.77;3.73;;;25.30;46.10;;;;;;4902593;29;20200;-87
2023/06/12 02:19:22;;;;;;;4.37;3.73;;;25.30;46.10;;;;;;4918398;29;20245;-87
2023/06/12 02:21:49;;;;;;;5.30;4.10;;;25.30;46.10;;;;;;4902400;29;20189;-87
2023/06/12 02:24:15;;;;;;;4.10;3.80;;;25.30;46.10;;;;;;4918286;29;20331;-87
2023/06/12 02:26:41;;;;;;;4.30;3.90;;;25.20;46.10;;;;;;4917849;29;20188;-87
2023/06/12 02:29:09;;;;;;;4.90;4.07;;;25.20;46.20;;;;;;4900891;29;20181;-87
2023/06/12 02:31:35;;;;;;;5.17;3.87;;;25.20;46.30;;;;;;4901615;29;20471;-87
2023/06/12 02:34:03;;;;;;;4.33;3.87;;;25.20;46.30;;;;;;4901156;29;20177;-87
2023/06/12 02:36:29;;;;;;;5.10;3.77;;;25.20;46.40;;;;;;4901426;29;20291;-87
2023/06/12 02:38:55;;;;;;;4.27;3.87;;;25.20;46.40;;;;;;4900933;29;20515;-87
2023/06/12 02:41:22;;;;;;;4.10;3.70;;;25.10;46.30;;;;;;4917872;29;20469;-87
2023/06/12 02:43:48;;;;;;;4.60;4.20;;;25.20;46.40;;;;;;4904910;29;20423;-87
2023/06/12 02:46:14;;;;;;;4.63;3.80;;;25.10;46.80;;;;;;4921311;29;20176;-87
2023/06/12 02:48:39;;;;;;;4.60;3.97;;;25.10;46.40;;;;;;4921215;29;20205;-87
2023/06/12 02:51:05;;;;;;;5.23;3.70;;;25.10;46.50;;;;;;4904192;29;20191;-87
2023/06/12 02:53:31;;;;;;;4.30;3.90;;;25.10;46.50;;;;;;4921790;29;20282;-87
2023/06/12 02:55:57;;;;;;;4.30;3.90;;;25.00;46.50;;;;;;4905642;29;20312;-87
2023/06/12 02:58:22;;;;;;;4.83;4.40;;;25.00;46.50;;;;;;4921834;29;20464;-87
2023/06/12 03:00:49;;;;;;;4.53;4.13;;;25.00;46.60;;;;;;4905356;29;20213;-87
2023/06/12 03:03:14;;;;;;;4.40;4.00;;;25.00;46.60;;;;;;4919414;29;20216;-87
2023/06/12 03:05:41;;;;;;;5.93;4.07;;;24.90;46.60;;;;;;4920091;29;20223;-87
2023/06/12 03:08:08;;;;;;;4.33;3.90;;;25.00;46.70;;;;;;4919875;29;20309;-87
2023/06/12 03:10:35;;;;;;;5.17;4.07;;;25.00;46.70;;;;;;4903976;29;20251;-87
2023/06/12 03:13:01;;;;;;;5.07;4.57;;;24.90;46.70;;;;;;4904396;29;20593;-87
2023/06/12 03:15:27;;;;;;;5.97;4.07;;;24.90;46.70;;;;;;4920133;29;20240;-87
2023/06/12 03:17:53;;;;;;;4.27;3.87;;;24.90;46.70;;;;;;4920682;29;20179;-87
2023/06/12 03:20:25;;;;;;;4.47;4.07;;;24.90;46.70;;;;;;4904668;29;20484;-87
2023/06/12 03:22:50;;;;;;;5.53;4.10;;;24.90;46.80;;;;;;4920565;29;20252;-87
2023/06/12 03:25:18;;;;;;;4.30;3.90;;;24.90;46.80;;;;;;4919601;29;20188;-87
2023/06/12 03:27:45;;;;;;;5.23;3.83;;;24.90;46.80;;;;;;4918611;29;20185;-87
2023/06/12 03:30:12;;;;;;;4.30;4.00;;;24.90;46.80;;;;;;4919899;29;20236;-87
2023/06/12 03:32:37;;;;;;;5.20;4.33;;;24.80;46.80;;;;;;4918795;29;20211;-87
2023/06/12 03:35:04;;;;;;;6.70;4.00;;;24.80;46.80;;;;;;4904067;29;20200;-87
2023/06/12 03:37:32;;;;;;;4.20;3.80;;;24.80;46.80;;;;;;4903723;29;20195;-87
2023/06/12 03:39:58;;;;;;;5.60;4.40;;;24.80;46.90;;;;;;4919892;29;20374;-87
2023/06/12 03:42:23;;;;;;;4.37;3.97;;;24.80;46.90;;;;;;4919577;29;20180;-87
2023/06/12 03:44:49;;;;;;;4.63;4.10;;;24.80;46.80;;;;;;4919393;29;20259;-87
2023/06/12 03:47:15;;;;;;;4.33;3.97;;;24.80;46.80;;;;;;4919079;29;20569;-87
2023/06/12 03:49:41;;;;;;;4.63;3.93;;;24.80;46.90;;;;;;4903936;29;20177;-87
2023/06/12 03:52:07;;;;;;;4.07;3.73;;;24.70;46.90;;;;;;4918495;29;20250;-87
2023/06/12 03:54:33;;;;;;;4.33;3.93;;;24.70;46.90;;;;;;4918266;29;20200;-87
2023/06/12 03:56:59;;;;;;;4.97;4.17;;;24.70;47.00;;;;;;4918374;29;20453;-87
2023/06/12 03:59:25;;;;;;;4.40;3.90;;;24.60;47.00;;;;;;4918427;29;20185;-87
2023/06/12 04:01:52;;;;;;;4.97;4.07;;;24.60;47.00;;;;;;4901067;29;20582;-87
2023/06/12 04:04:18;;;;;;;4.30;3.90;;;24.60;46.90;;;;;;4902016;29;20196;-87
2023/06/12 04:06:45;;;;;;;4.60;4.10;;;24.60;46.80;;;;;;4917479;29;20220;-87
2023/06/12 04:09:14;;;;;;;4.83;4.30;;;24.60;46.90;;;;;;4902294;29;20247;-87
2023/06/12 04:11:40;;;;;;;5.03;4.33;;;24.60;46.90;;;;;;4901141;29;20203;-87
2023/06/12 04:14:07;;;;;;;4.80;3.90;;;24.70;46.90;;;;;;4917419;29;20639;-87
2023/06/12 04:16:34;;;;;;;4.57;3.93;;;24.70;46.90;;;;;;4900355;29;20297;-87
2023/06/12 04:19:07;;;;;;;4.43;4.03;;;24.70;46.90;;;;;;4901990;29;20456;-87
2023/06/12 04:21:33;;;;;;;4.70;4.00;;;24.70;46.90;;;;;;4917039;29;20301;-87
2023/06/12 04:24:03;;;;;;;4.10;3.70;;;24.70;47.00;;;;;;4915206;29;20202;-87
2023/06/12 04:26:37;;;;;;;4.43;4.03;;;24.70;47.00;;;;;;4898361;29;20564;-87
2023/06/12 04:29:02;;;;;;;4.87;4.27;;;24.70;46.90;;;;;;4898916;29;20172;-87
2023/06/12 04:31:29;;;;;;;4.93;3.90;;;24.70;47.00;;;;;;4914240;29;20189;-87
2023/06/12 04:33:55;;;;;;;4.33;3.87;;;24.70;47.00;;;;;;4913834;29;20262;-87
2023/06/12 04:36:22;;;;;;;4.80;4.30;;;24.70;46.90;;;;;;4915857;29;20280;-87
2023/06/12 04:38:56;;;;;;;4.60;4.00;;;24.80;47.00;;;;;;4917405;29;20179;-87
2023/06/12 04:41:27;;;;;;;4.43;4.03;;;24.80;47.00;;;;;;4917252;29;20670;-87
2023/06/12 04:43:58;;;;;;;4.40;4.00;;;24.80;47.00;;;;;;4915853;29;20175;-87
2023/06/12 04:46:24;;;;;;;5.23;4.23;;;24.80;47.00;;;;;;4900208;29;20169;-87
2023/06/12 04:48:50;;;;;;;4.47;4.07;;;24.80;47.00;;;;;;4898851;29;20177;-88
2023/06/12 04:51:16;;;;;;;4.43;3.93;;;24.90;47.00;;;;;;4915525;29;20187;-88
2023/06/12 04:53:43;;;;;;;5.07;4.00;;;24.80;47.00;;;;;;4915098;29;20260;-87
2023/06/12 04:56:10;;;;;;;4.33;3.83;;;24.90;47.00;;;;;;4914607;29;20176;-87
2023/06/12 04:58:45;;;;;;;4.70;4.20;;;24.90;47.00;;;;;;4906465;29;20185;-87
2023/06/12 05:01:11;;;;;;;6.03;4.47;;;24.90;47.00;;;;;;4913363;29;20222;-87
2023/06/12 05:03:38;;;;;;;4.90;4.50;;;25.00;47.00;;;;;;4898754;29;20200;-87
2023/06/12 05:06:05;;;;;;;5.03;4.50;;;25.00;46.90;;;;;;4914068;29;20461;-87
2023/06/12 05:08:31;;;;;;;4.77;4.10;;;25.00;46.90;;;;;;4897198;29;20517;-87
2023/06/12 05:10:57;;;;;;;4.80;4.40;;;25.10;46.90;;;;;;4913098;29;20181;-87
2023/06/12 05:13:23;;;;;;;4.90;4.30;;;25.10;46.90;;;;;;4894816;29;20177;-87
2023/06/12 05:15:48;;;;;;;5.00;4.30;;;25.20;47.00;;;;;;4912333;29;20180;-87
2023/06/12 05:18:14;;;;;;;5.10;4.10;;;25.20;47.00;;;;;;4893245;29;20241;-87
2023/06/12 05:20:40;;;;;;;5.30;4.20;;;25.20;46.90;;;;;;4895032;29;20236;-88
2023/06/12 05:23:06;;;;;;;4.57;4.07;;;25.30;47.00;;;;;;4910515;29;20215;-87
2023/06/12 05:25:32;;;;;;;4.53;3.77;;;25.30;46.90;;;;;;4909217;29;20187;-87
2023/06/12 05:27:58;;;;;;;4.50;4.10;;;25.40;47.00;;;;;;4907177;29;20376;-88
2023/06/12 05:30:23;;;;;;;4.70;4.17;;;25.40;47.00;;;;;;4907163;29;20201;-88
2023/06/12 05:32:50;;;;;;;4.37;3.90;;;25.40;46.90;;;;;;4909472;29;20271;-88
2023/06/12 05:35:15;;;;;;;4.77;4.00;;;25.50;47.00;;;;;;4907900;29;20311;-88
2023/06/12 05:37:41;;;;;;;5.33;4.07;;;25.60;47.10;;;;;;4910182;29;20516;-88
2023/06/12 05:40:09;;;;;;;4.47;4.07;;;25.60;46.80;;;;;;4911367;29;20522;-88
2023/06/12 05:42:35;;;;;;;4.10;3.70;;;25.60;46.80;;;;;;4895410;29;20243;-88
2023/06/12 05:45:02;;;;;;;3.90;3.60;;;25.70;46.70;;;;;;4894113;29;20173;-88
2023/06/12 05:47:28;;;;;;;4.13;3.73;;;25.80;46.50;;;;;;4896384;29;20184;-88
2023/06/12 05:49:53;;;;;;;4.43;3.80;;;25.90;46.40;;;;;;4908176;29;20181;-88
2023/06/12 05:52:19;;;;;;;4.67;3.87;;;26.00;46.30;;;;;;4908335;29;20184;-88
2023/06/12 05:54:46;;;;;;;5.30;3.80;;;26.10;46.30;;;;;;4910071;29;20204;-88
2023/06/12 05:57:13;;;;;;;4.40;4.00;;;26.10;46.30;;;;;;4908756;29;20169;-88
2023/06/12 05:59:39;;;;;;;4.13;3.73;;;26.20;46.30;;;;;;4908736;29;20200;-88
2023/06/12 06:02:05;;;;;;;4.97;4.33;;;26.30;46.30;;;;;;4890499;29;20688;-88
2023/06/12 06:04:40;;;;;;;3.73;3.43;;;26.40;46.30;;;;;;4890187;29;20173;-88
2023/06/12 06:07:07;;;;;;;4.00;3.70;;;26.50;46.30;;;;;;4907109;29;20173;-88
2023/06/12 06:09:34;;;;;;;4.23;3.70;;;26.60;46.30;;;;;;4909368;29;20216;-88
2023/06/12 06:11:59;;;;;;;3.70;3.40;;;26.70;46.20;;;;;;4893251;29;20257;-88
2023/06/12 06:14:25;;;;;;;4.73;3.70;;;26.80;46.20;;;;;;4908113;29;20177;-88
2023/06/12 06:16:51;;;;;;;6.03;3.70;;;26.90;46.10;;;;;;4913403;29;20592;-88
2023/06/12 06:19:17;;;;;;;4.40;3.70;;;27.10;46.10;;;;;;4897149;29;20169;-88
2023/06/12 06:21:42;;;;;;;4.10;3.70;;;27.20;46.40;;;;;;4915581;29;20464;-88
2023/06/12 06:24:08;;;;;;;5.07;3.73;;;27.30;45.90;;;;;;4911804;29;20178;-88
2023/06/12 06:26:34;;;;;;;4.70;3.53;;;27.50;45.80;;;;;;4898480;29;20228;-88
2023/06/12 06:29:05;;;;;;;4.70;3.93;;;27.60;45.70;;;;;;4916570;29;20169;-88
2023/06/12 06:31:36;;;;;;;4.33;3.77;;;27.70;45.60;;;;;;4899933;29;20181;-88
2023/06/12 06:34:02;;;;;;;4.40;3.47;;;27.80;45.60;;;;;;4898599;29;20460;-88
2023/06/12 06:36:27;;;;;;;6.13;3.93;;;28.00;45.50;;;;;;4913816;29;20611;-88
2023/06/12 06:38:53;;;;;;;6.83;4.43;;;28.10;45.40;;;;;;4912539;29;20184;-88
2023/06/12 06:41:19;;;;;;;5.50;3.70;;;28.30;45.30;;;;;;4896990;29;20204;-88
2023/06/12 06:43:45;;;;;;;4.60;3.80;;;28.40;45.10;;;;;;4912355;29;20203;-88
2023/06/12 06:46:11;;;;;;;4.20;3.80;;;28.60;45.10;;;;;;4901182;29;20345;-88
2023/06/12 06:48:36;;;;;;;6.27;4.57;;;28.70;45.00;;;;;;4907580;29;20400;-88
2023/06/12 06:51:02;;;;;;;5.27;4.07;;;28.80;45.00;;;;;;4907209;29;20276;-88
2023/06/12 06:53:28;;;;;;;4.40;4.00;;;28.90;45.00;;;;;;4893174;29;20220;-88
2023/06/12 06:55:54;;;;;;;4.30;3.90;;;28.80;44.90;;;;;;4892483;29;20293;-88
2023/06/12 06:58:20;;;;;;;6.03;4.30;;;28.80;45.00;;;;;;4909652;29;20738;-88
2023/06/12 07:00:46;;;;;;;5.10;4.30;;;28.90;44.90;;;;;;4910446;29;20257;-88
2023/06/12 07:03:11;;;;;;;6.03;4.60;;;29.10;44.90;;;;;;4910718;29;20636;-88
2023/06/12 07:05:37;;;;;;;4.70;4.20;;;29.40;44.70;;;;;;4912275;29;20177;-88
2023/06/12 07:08:03;;;;;;;5.47;3.80;;;29.80;44.50;;;;;;4911108;29;20459;-88
2023/06/12 07:10:29;;;;;;;5.17;4.07;;;30.40;44.10;;;;;;4909756;29;20173;-88
2023/06/12 07:12:56;;;;;;;7.23;4.40;;;30.80;43.50;;;;;;4909747;29;20267;-88
2023/06/12 07:15:24;;;;;;;5.43;4.50;;;31.10;43.20;;;;;;4908850;29;20284;-88
2023/06/12 07:17:50;;;;;;;6.13;4.20;;;31.50;43.00;;;;;;4893652;29;20173;-88
2023/06/12 07:20:16;;;;;;;6.93;4.77;;;31.80;42.60;;;;;;4894934;29;20339;-88
2023/06/12 07:22:41;;;;;;;5.17;4.60;;;32.10;42.40;;;;;;4910022;29;20216;-88
2023/06/12 07:25:08;;;;;;;5.00;4.50;;;32.30;42.20;;;;;;4894204;29;20313;-88
2023/06/12 07:27:34;;;;;;;5.20;4.37;;;32.40;42.70;;;;;;4893117;29;20182;-88
2023/06/12 07:30:00;;;;;;;6.68;4.85;;;32.50;42.10;;;;;;4910352;29;20241;-88
2023/06/12 07:32:26;;;;;;;4.85;4.35;;;32.70;42.00;;;;;;4911145;29;20185;-88
2023/06/12 07:34:51;;;;;;;5.63;4.28;;;32.80;41.80;;;;;;4910941;29;20203;-89
2023/06/12 07:37:20;;;;;;;5.13;4.63;;;33.00;41.60;;;;;;4894458;29;20181;-89
2023/06/12 07:39:51;;;;;;;8.35;4.72;;;33.30;41.60;;;;;;4895091;29;20315;-88
2023/06/12 07:42:24;;;;;;;6.03;4.90;;;33.40;41.00;;;;;;4896564;29;20191;-88
2023/06/12 07:44:49;;;;;;;5.63;4.90;;;33.60;40.90;;;;;;4913903;29;20407;-88
2023/06/12 07:47:15;;;;;;;6.72;4.50;;;33.70;40.70;;;;;;4911435;29;20182;-89
2023/06/12 07:49:41;;;;;;;6.40;5.20;;;33.50;40.80;;;;;;4894531;29;20283;-89
2023/06/12 07:52:07;;;;;;;6.57;5.13;;;33.50;40.30;;;;;;4894117;29;20450;-88
2023/06/12 07:54:33;;;;;;;5.10;4.60;;;33.70;39.70;;;;;;4893862;29;20259;-89
2023/06/12 07:56:58;;;;;;;6.70;5.13;;;33.80;40.20;;;;;;4910178;29;20235;-88
2023/06/12 07:59:24;;;;;;;5.00;4.50;;;33.90;40.00;;;;;;4892903;29;20543;-89
2023/06/12 08:01:50;;;;;;;8.50;5.13;;;33.60;40.30;;;;;;4910883;29;20227;-88
2023/06/12 08:04:16;;;;;;;6.88;4.95;;;33.60;40.40;;;;;;4909576;29;20470;-88
2023/06/12 08:06:44;;;;;;;6.28;5.00;;;33.60;40.30;;;;;;4909632;29;20169;-88
2023/06/12 08:09:10;;;;;;;5.75;4.68;;;33.70;40.20;;;;;;4915708;29;20196;-88
2023/06/12 08:11:37;;;;;;;6.20;5.18;;;33.80;40.20;;;;;;4914106;29;20180;-88
2023/06/12 08:14:03;;;;;;;5.20;4.65;;;33.70;40.10;;;;;;4911207;29;20378;-88
2023/06/12 08:16:28;;;;;;;5.05;4.57;;;34.00;40.10;;;;;;4894584;29;20173;-89
2023/06/12 08:18:55;;;;;;;8.63;4.72;;;33.90;40.00;;;;;;4909115;29;20418;-89
2023/06/12 08:21:24;;;;;;;6.00;4.78;;;33.90;40.20;;;;;;4910747;29;20251;-89
2023/06/12 08:23:51;;;;;;;6.32;5.25;;;33.80;40.30;;;;;;4912464;29;20451;-89
2023/06/12 08:26:17;;;;;;;6.50;4.70;;;34.10;40.20;;;;;;4894183;29;20363;-89
2023/06/12 08:28:47;;;;;;;6.18;4.70;;;33.90;40.20;;;;;;4894041;29;20497;-89
2023/06/12 08:31:14;;;;;;;5.10;4.50;;;34.10;40.30;;;;;;4891125;29;20190;-89
2023/06/12 08:33:40;;;;;;;5.85;5.07;;;34.30;40.20;;;;;;4909836;29;20184;-89
2023/06/12 08:36:06;;;;;;;5.40;4.90;;;34.40;39.80;;;;;;4908841;29;20193;-89
2023/06/12 08:38:31;;;;;;;5.93;5.05;;;34.50;39.50;;;;;;4907901;29;20454;-89
2023/06/12 08:41:00;;;;;;;5.38;4.93;;;34.30;40.00;;;;;;4893125;29;20558;-89
2023/06/12 08:43:28;;;;;;;6.00;4.70;;;34.30;40.10;;;;;;4907365;29;20184;-89
2023/06/12 08:45:56;;;;;;;6.28;5.18;;;34.10;40.30;;;;;;4890779;29;20300;-89
2023/06/12 08:48:25;;;;;;;5.25;4.75;;;34.20;40.40;;;;;;4908289;29;20185;-89
2023/06/12 08:50:52;;;;;;;5.45;4.90;;;33.90;40.50;;;;;;4907503;29;20427;-88
2023/06/12 08:53:19;;;;;;;6.28;5.18;;;33.90;40.80;;;;;;4889393;29;20564;-89
2023/06/12 08:55:45;;;;;;;5.80;5.05;;;33.90;40.20;;;;;;4892097;29;20177;-89
2023/06/12 08:58:11;;;;;;;7.40;5.20;;;33.60;40.70;;;;;;4891789;29;20204;-89
2023/06/12 09:00:37;;;;;;;6.00;5.47;;;33.30;41.00;;;;;;4891692;29;20248;-88
2023/06/12 09:03:07;;;;;;;5.90;5.40;;;32.90;41.40;;;;;;4891231;29;20233;-88
2023/06/12 09:05:35;;;;;;;6.60;4.97;;;32.90;41.50;;;;;;4910092;29;20171;-89
2023/06/12 09:08:05;;;;;;;6.60;5.18;;;32.80;41.60;;;;;;4910497;29;20311;-89
2023/06/12 09:10:35;;;;;;;5.95;4.97;;;32.70;41.70;;;;;;4909604;29;20473;-89
2023/06/12 09:13:09;;;;;;;5.43;4.93;;;32.90;41.80;;;;;;4909655;29;20181;-89
2023/06/12 09:15:37;;;;;;;6.03;5.53;;;33.00;41.80;;;;;;4894132;29;20363;-89
2023/06/12 09:18:07;;;;;;;5.93;5.07;;;33.20;41.90;;;;;;4911435;29;20175;-89
2023/06/12 09:20:33;;;;;;;6.50;5.05;;;33.20;41.70;;;;;;4894776;29;20657;-89
2023/06/12 09:23:00;;;;;;;6.07;4.85;;;33.10;41.80;;;;;;4908298;29;20309;-89
2023/06/12 09:25:40;;;;;;;7.05;4.70;;;33.20;41.80;;;;;;4909078;29;20188;-89
2023/06/12 09:28:08;;;;;;;5.40;4.75;;;33.20;41.70;;;;;;4893132;29;20501;-88
2023/06/12 09:30:41;;;;;;;6.18;5.43;;;33.30;41.70;;;;;;4891582;29;20600;-88
2023/06/12 09:33:08;;;;;;;6.10;4.88;;;33.20;41.80;;;;;;4892931;29;20399;-88
2023/06/12 09:35:52;;;;;;;5.75;4.63;;;33.10;42.00;;;;;;4907198;29;20569;-88
2023/06/12 09:38:27;;;;;;;5.40;4.80;;;33.00;42.00;;;;;;4893179;29;20704;-88
2023/06/12 09:40:57;;;;;;;6.97;4.82;;;33.10;42.10;;;;;;4891458;29;20272;-88
2023/06/12 09:43:27;;;;;;;4.80;4.32;;;33.10;42.20;;;;;;4894917;29;20177;-89
2023/06/12 09:45:53;;;;;;;5.63;5.13;;;33.00;42.20;;;;;;4910820;29;20247;-89
2023/06/12 09:48:19;;;;;;;5.20;4.78;;;32.90;42.40;;;;;;4911056;29;20169;-88
2023/06/12 09:50:46;;;;;;;5.75;5.15;;;32.90;42.50;;;;;;4910455;29;20463;-88
2023/06/12 09:53:16;;;;;;;6.50;5.18;;;33.10;40.90;;;;;;4897226;29;20248;-89
2023/06/12 09:55:45;;;;;;;4.97;4.57;;;33.10;42.00;;;;;;4914432;29;20236;-88
2023/06/12 09:58:13;;;;;;;4.95;4.55;;;33.20;42.20;;;;;;4897008;29;20418;-88
2023/06/12 10:00:40;;;;;;;4.75;4.18;;;33.00;42.20;;;;;;4895341;29;20208;-88
2023/06/12 10:03:14;;;;;;;5.03;4.63;;;33.10;42.00;;;;;;4894544;29;20204;-88
2023/06/12 10:05:48;;;;;;;5.28;4.72;;;33.10;39.70;;;;;;4894894;29;20588;-88
2023/06/12 10:08:17;;;;;;;5.10;4.60;;;33.30;39.80;;;;;;4911526;29;20481;-88
2023/06/12 10:10:43;;;;;;;5.13;4.63;;;33.20;40.70;;;;;;4896119;29;20188;-88
2023/06/12 10:13:10;;;;;;;5.07;4.50;;;33.00;41.30;;;;;;4896965;29;20453;-88
2023/06/12 10:15:37;;;;;;;4.95;4.50;;;33.10;39.80;;;;;;4896328;29;20181;-88
2023/06/12 10:18:08;;;;;;;5.75;4.50;;;32.90;40.50;;;;;;4896281;29;20660;-88
2023/06/12 10:20:34;;;;;;;5.40;4.70;;;32.60;41.20;;;;;;4898852;29;20553;-89
2023/06/12 10:23:02;;;;;;;4.53;4.13;;;32.80;40.30;;;;;;4898668;29;20275;-89
2023/06/12 10:25:30;;;;;;;5.47;4.78;;;32.80;41.00;;;;;;4882501;29;20181;-89
2023/06/12 10:27:57;;;;;;;5.43;4.72;;;33.00;40.30;;;;;;4897689;29;20670;-89
2023/06/12 10:30:23;;;;;;;6.43;4.97;;;32.90;40.60;;;;;;4899047;29;20193;-88
2023/06/12 10:32:48;;;;;;;4.97;4.50;;;32.80;41.00;;;;;;4912398;29;20219;-89
2023/06/12 10:35:30;;;;;;;5.70;5.20;;;32.60;41.50;;;;;;4913930;29;20243;-89
2023/06/12 10:37:55;;;;;;;5.40;4.90;;;32.70;40.80;;;;;;4895523;29;20348;-89
2023/06/12 10:40:22;;;;;;;12.73;4.80;;;32.70;40.40;;;;;;4909378;29;20296;-89
2023/06/12 10:42:54;;;;;;;6.97;4.97;;;32.70;41.00;;;;;;4893792;29;20476;-89
2023/06/12 10:45:26;;;;;;;5.75;5.13;;;32.50;41.20;;;;;;4893970;29;20192;-88
2023/06/12 10:48:06;;;;;;;4.78;4.38;;;32.50;41.50;;;;;;4891452;29;20216;-89
2023/06/12 10:50:33;;;;;;;6.30;4.43;;;32.40;41.90;;;;;;4923512;29;20435;-89
2023/06/12 10:53:04;;;;;;;5.32;4.82;;;32.30;41.70;;;;;;4907486;29;20633;-89
2023/06/12 10:55:31;;;;;;;7.47;4.63;;;32.30;40.80;;;;;;4917314;29;20181;-90
2023/06/12 10:58:19;;;;;;;5.15;4.70;;;32.30;39.40;;;;;;4910704;29;20169;-89
2023/06/12 11:00:51;;;;;;;7.93;4.78;;;32.00;39.40;;;;;;4941998;29;20459;-89
2023/06/12 11:03:21;;;;;;;5.00;4.50;;;31.90;40.50;;;;;;4909825;29;20173;-88
2023/06/12 11:06:00;;;;;;;5.47;4.95;;;31.90;41.00;;;;;;4926526;29;20212;-88
2023/06/12 11:08:32;;;;;;;5.25;4.82;;;32.00;40.70;;;;;;4907007;29;20184;-88
2023/06/12 11:10:58;;;;;;;5.13;4.60;;;31.60;40.00;;;;;;4909901;29;20223;-89
2023/06/12 11:13:28;;;;;;;6.93;5.10;;;31.70;41.60;;;;;;4911363;29;20212;-90
2023/06/12 11:15:54;;;;;;;5.43;4.90;;;31.60;40.90;;;;;;4910569;29;20176;-88
2023/06/12 11:18:20;;;;;;;5.18;4.68;;;31.70;41.60;;;;;;4908854;29;20796;-91
2023/06/12 11:20:54;;;;;;;5.32;4.63;;;31.90;42.10;;;;;;4906545;29;20299;-89
2023/06/12 11:23:25;;;;;;;4.85;4.40;;;31.70;42.30;;;;;;4923860;29;20181;-89
2023/06/12 11:25:57;;;;;;;7.90;5.25;;;31.60;42.50;;;;;;4910645;29;20320;-89
2023/06/12 11:28:24;;;;;;;5.18;4.60;;;31.60;41.40;;;;;;4909081;29;20177;-88
2023/06/12 11:30:51;;;;;;;5.45;4.97;;;31.60;42.50;;;;;;4908401;29;20177;-89
2023/06/12 11:33:17;;;;;;;5.38;4.97;;;31.60;42.20;;;;;;4907203;29;20427;-88
2023/06/12 11:35:51;;;;;;;7.03;4.95;;;31.60;41.50;;;;;;4908226;29;20265;-88
2023/06/12 11:38:21;;;;;;;5.72;4.53;;;31.50;42.30;;;;;;4907415;29;20450;-88
2023/06/12 11:40:50;;;;;;;4.82;4.43;;;31.50;42.60;;;;;;4892926;29;20208;-88
2023/06/12 11:43:18;;;;;;;6.05;5.45;;;31.50;42.60;;;;;;4906858;29;20180;-88
2023/06/12 11:45:44;;;;;;;5.65;5.05;;;31.50;42.10;;;;;;4900963;29;20216;-89
2023/06/12 11:48:16;;;;;;;5.32;4.93;;;31.50;42.50;;;;;;4891306;29;20229;-88
2023/06/12 11:50:48;;;;;;;5.93;5.00;;;31.50;42.40;;;;;;4889906;29;20831;-89
2023/06/12 11:53:15;;;;;;;4.72;4.32;;;31.50;42.50;;;;;;4889532;29;20185;-88
2023/06/12 11:55:43;;;;;;;5.45;5.00;;;31.50;42.80;;;;;;4889053;29;20272;-88
2023/06/12 11:58:08;;;;;;;5.45;4.95;;;31.50;42.90;;;;;;4903479;29;20480;-88
2023/06/12 12:00:35;;;;;;;7.22;5.68;;;31.40;40.70;;;;;;4905814;29;20209;-88
2023/06/12 12:03:09;;;;;;;5.60;5.10;;;31.20;41.00;;;;;;4891525;29;20212;-89
2023/06/12 12:05:37;;;;;;;6.20;5.60;;;31.20;41.50;;;;;;4890503;29;20277;-89
2023/06/12 12:08:05;;;;;;;6.63;5.70;;;31.30;40.50;;;;;;4891516;29;20181;-89
2023/06/12 12:10:33;;;;;;;7.60;5.55;;;31.00;40.70;;;;;;4910183;29;20247;-88
2023/06/12 12:13:03;;;;;;;6.40;5.70;;;31.10;41.80;;;;;;4909594;29;20172;-89
2023/06/12 12:15:38;;;;;;;7.40;5.30;;;31.20;41.80;;;;;;4905087;29;20259;-89
2023/06/12 12:18:09;;;;;;;5.88;5.35;;;31.20;41.60;;;;;;4908417;29;20276;-89
2023/06/12 12:20:35;;;;;;;5.32;4.90;;;31.30;41.70;;;;;;4908026;29;20370;-88
2023/06/12 12:23:03;;;;;;;7.35;6.10;;;31.30;42.40;;;;;;4906255;29;20275;-89
2023/06/12 12:25:31;;;;;;;5.57;5.07;;;31.10;39.90;;;;;;4909478;29;20174;-88
2023/06/12 12:28:02;;;;;;;8.40;6.57;;;31.00;42.00;;;;;;4908322;29;20173;-88
2023/06/12 12:30:29;;;;;;;6.45;5.60;;;31.00;39.80;;;;;;4908168;29;20177;-88
2023/06/12 12:32:56;;;;;;;5.80;5.15;;;31.00;40.60;;;;;;4910618;29;20188;-88
2023/06/12 12:35:31;;;;;;;5.88;5.38;;;30.80;40.50;;;;;;4912322;29;20581;-88
2023/06/12 12:38:03;;;;;;;5.45;4.95;;;30.80;41.10;;;;;;4906181;29;20568;-88
2023/06/12 12:40:30;;;;;;;6.72;6.13;;;30.90;42.00;;;;;;4914127;29;20236;-88
2023/06/12 12:42:56;;;;;;;6.80;6.05;;;30.70;39.80;;;;;;4910750;29;20271;-88
2023/06/12 12:45:22;;;;;;;6.88;5.18;;;30.60;40.40;;;;;;4913384;29;20676;-88
2023/06/12 12:47:47;;;;;;;6.85;6.05;;;30.70;41.40;;;;;;4911378;29;20185;-88
2023/06/12 12:50:14;;;;;;;6.50;5.90;;;30.80;41.80;;;;;;4909517;29;20476;-88
2023/06/12 12:52:40;;;;;;;7.10;5.78;;;30.80;41.70;;;;;;4908696;29;20208;-88